sensor_id;sensor_type;location;lat;lon;timestamp;P1;durP1;ratioP1;P2;durP2;ratioP2
84814;SDS011;75050;53.190;5.562;2024-01-30T00:01:06;12.40;;;11.10;;
84814;SDS011;75050;53.190;5.562;2024-01-30T00:03:31;12.38;;;11.27;;
84814;SDS011;75050;53.190;5.562;2024-01-30T00:05:57;11.68;;;10.50;;
84814;SDS011;75050;53.190;5.562;2024-01-30T00:08:22;13.48;;;12.27;;
84814;SDS011;75050;53.190;5.562;2024-01-30T00:10:47;12.35;;;11.18;;
84814;SDS011;75050;53.190;5.562;2024-01-30T00:13:13;16.38;;;15.02;;
84814;SDS011;75050;53.190;5.562;2024-01-30T00:15:41;12.32;;;11.40;;
84814;SDS011;75050;53.190;5.562;2024-01-30T00:18:06;12.68;;;11.52;;
84814;SDS011;75050;53.190;5.562;2024-01-30T00:20:31;13.48;;;12.27;;
84814;SDS011;75050;53.190;5.562;2024-01-30T00:22:57;12.02;;;10.98;;
84814;SDS011;75050;53.190;5.562;2024-01-30T00:25:22;11.55;;;10.50;;
84814;SDS011;75050;53.190;5.562;2024-01-30T00:27:48;12.18;;;11.07;;
84814;SDS011;75050;53.190;5.562;2024-01-30T00:30:13;13.40;;;12.20;;
84814;SDS011;75050;53.190;5.562;2024-01-30T00:32:39;11.27;;;10.20;;
84814;SDS011;75050;53.190;5.562;2024-01-30T00:35:04;11.77;;;9.00;;
84814;SDS011;75050;53.190;5.562;2024-01-30T00:37:30;12.85;;;11.65;;
84814;SDS011;75050;53.190;5.562;2024-01-30T00:39:56;12.52;;;11.23;;
84814;SDS011;75050;53.190;5.562;2024-01-30T00:42:22;12.70;;;11.57;;
84814;SDS011;75050;53.190;5.562;2024-01-30T00:44:48;12.40;;;11.23;;
84814;SDS011;75050;53.190;5.562;2024-01-30T00:47:14;13.75;;;12.35;;
84814;SDS011;75050;53.190;5.562;2024-01-30T00:49:39;12.43;;;11.32;;
84814;SDS011;75050;53.190;5.562;2024-01-30T00:52:05;10.63;;;9.40;;
84814;SDS011;75050;53.190;5.562;2024-01-30T00:54:30;12.70;;;11.48;;
84814;SDS011;75050;53.190;5.562;2024-01-30T00:56:56;11.95;;;10.75;;
84814;SDS011;75050;53.190;5.562;2024-01-30T00:59:21;12.77;;;11.57;;
84814;SDS011;75050;53.190;5.562;2024-01-30T01:01:47;12.00;;;10.90;;
84814;SDS011;75050;53.190;5.562;2024-01-30T01:04:12;11.82;;;10.73;;
84814;SDS011;75050;53.190;5.562;2024-01-30T01:06:38;11.48;;;9.80;;
84814;SDS011;75050;53.190;5.562;2024-01-30T01:09:03;11.95;;;10.88;;
84814;SDS011;75050;53.190;5.562;2024-01-30T01:11:29;11.48;;;10.38;;
84814;SDS011;75050;53.190;5.562;2024-01-30T01:13:54;13.27;;;11.90;;
84814;SDS011;75050;53.190;5.562;2024-01-30T01:16:19;13.00;;;11.70;;
84814;SDS011;75050;53.190;5.562;2024-01-30T01:18:45;12.52;;;11.23;;
84814;SDS011;75050;53.190;5.562;2024-01-30T01:21:10;13.60;;;12.30;;
84814;SDS011;75050;53.190;5.562;2024-01-30T01:23:36;12.90;;;11.63;;
84814;SDS011;75050;53.190;5.562;2024-01-30T01:26:01;11.60;;;10.48;;
84814;SDS011;75050;53.190;5.562;2024-01-30T01:28:27;13.60;;;12.48;;
84814;SDS011;75050;53.190;5.562;2024-01-30T01:30:52;12.30;;;11.10;;
84814;SDS011;75050;53.190;5.562;2024-01-30T01:33:17;11.80;;;10.60;;
84814;SDS011;75050;53.190;5.562;2024-01-30T01:35:43;12.65;;;11.43;;
84814;SDS011;75050;53.190;5.562;2024-01-30T01:38:08;13.00;;;11.80;;
84814;SDS011;75050;53.190;5.562;2024-01-30T01:40:34;12.15;;;10.85;;
84814;SDS011;75050;53.190;5.562;2024-01-30T01:43:02;13.77;;;12.48;;
84814;SDS011;75050;53.190;5.562;2024-01-30T01:45:28;12.93;;;11.32;;
84814;SDS011;75050;53.190;5.562;2024-01-30T01:47:53;12.85;;;11.55;;
84814;SDS011;75050;53.190;5.562;2024-01-30T01:50:20;12.52;;;11.32;;
84814;SDS011;75050;53.190;5.562;2024-01-30T01:52:49;12.40;;;11.25;;
84814;SDS011;75050;53.190;5.562;2024-01-30T01:55:16;15.07;;;13.85;;
84814;SDS011;75050;53.190;5.562;2024-01-30T01:57:44;13.20;;;11.88;;
84814;SDS011;75050;53.190;5.562;2024-01-30T02:00:10;13.27;;;11.98;;
84814;SDS011;75050;53.190;5.562;2024-01-30T02:02:37;14.27;;;11.68;;
84814;SDS011;75050;53.190;5.562;2024-01-30T02:05:04;14.00;;;12.60;;
84814;SDS011;75050;53.190;5.562;2024-01-30T02:07:29;13.13;;;11.77;;
84814;SDS011;75050;53.190;5.562;2024-01-30T02:09:55;13.90;;;11.77;;
84814;SDS011;75050;53.190;5.562;2024-01-30T02:12:20;13.98;;;12.45;;
84814;SDS011;75050;53.190;5.562;2024-01-30T02:14:46;11.82;;;10.68;;
84814;SDS011;75050;53.190;5.562;2024-01-30T02:17:13;12.65;;;11.25;;
84814;SDS011;75050;53.190;5.562;2024-01-30T02:19:39;12.90;;;11.48;;
84814;SDS011;75050;53.190;5.562;2024-01-30T02:22:05;11.25;;;10.13;;
84814;SDS011;75050;53.190;5.562;2024-01-30T02:24:30;13.88;;;12.52;;
84814;SDS011;75050;53.190;5.562;2024-01-30T02:26:56;12.10;;;10.38;;
84814;SDS011;75050;53.190;5.562;2024-01-30T02:29:22;12.10;;;10.65;;
84814;SDS011;75050;53.190;5.562;2024-01-30T02:31:47;11.75;;;10.25;;
84814;SDS011;75050;53.190;5.562;2024-01-30T02:34:13;12.75;;;11.45;;
84814;SDS011;75050;53.190;5.562;2024-01-30T02:36:38;12.35;;;11.15;;
84814;SDS011;75050;53.190;5.562;2024-01-30T02:39:07;12.20;;;11.07;;
84814;SDS011;75050;53.190;5.562;2024-01-30T02:41:33;13.32;;;11.93;;
84814;SDS011;75050;53.190;5.562;2024-01-30T02:43:58;12.07;;;10.35;;
84814;SDS011;75050;53.190;5.562;2024-01-30T02:46:24;11.88;;;10.52;;
84814;SDS011;75050;53.190;5.562;2024-01-30T02:48:49;13.07;;;11.77;;
84814;SDS011;75050;53.190;5.562;2024-01-30T02:51:14;13.32;;;11.82;;
84814;SDS011;75050;53.190;5.562;2024-01-30T02:53:40;12.95;;;11.20;;
84814;SDS011;75050;53.190;5.562;2024-01-30T02:56:05;12.02;;;10.73;;
84814;SDS011;75050;53.190;5.562;2024-01-30T02:58:30;12.70;;;11.15;;
84814;SDS011;75050;53.190;5.562;2024-01-30T03:00:56;14.85;;;13.45;;
84814;SDS011;75050;53.190;5.562;2024-01-30T03:03:21;12.85;;;11.63;;
84814;SDS011;75050;53.190;5.562;2024-01-30T03:05:47;14.60;;;13.10;;
84814;SDS011;75050;53.190;5.562;2024-01-30T03:08:12;11.60;;;10.40;;
84814;SDS011;75050;53.190;5.562;2024-01-30T03:10:37;12.40;;;11.15;;
84814;SDS011;75050;53.190;5.562;2024-01-30T03:13:03;12.75;;;11.43;;
84814;SDS011;75050;53.190;5.562;2024-01-30T03:15:28;12.65;;;11.38;;
84814;SDS011;75050;53.190;5.562;2024-01-30T03:17:54;14.23;;;12.90;;
84814;SDS011;75050;53.190;5.562;2024-01-30T03:20:19;12.38;;;10.98;;
84814;SDS011;75050;53.190;5.562;2024-01-30T03:22:44;13.07;;;11.77;;
84814;SDS011;75050;53.190;5.562;2024-01-30T03:25:10;12.45;;;11.15;;
84814;SDS011;75050;53.190;5.562;2024-01-30T03:27:35;12.75;;;11.45;;
84814;SDS011;75050;53.190;5.562;2024-01-30T03:30:01;12.93;;;11.50;;
84814;SDS011;75050;53.190;5.562;2024-01-30T03:32:27;12.02;;;10.82;;
84814;SDS011;75050;53.190;5.562;2024-01-30T03:34:53;11.80;;;10.60;;
84814;SDS011;75050;53.190;5.562;2024-01-30T03:37:18;14.05;;;12.75;;
84814;SDS011;75050;53.190;5.562;2024-01-30T03:39:44;12.77;;;11.57;;
84814;SDS011;75050;53.190;5.562;2024-01-30T03:42:09;12.48;;;11.43;;
84814;SDS011;75050;53.190;5.562;2024-01-30T03:44:35;13.10;;;11.77;;
84814;SDS011;75050;53.190;5.562;2024-01-30T03:47:00;13.38;;;12.07;;
84814;SDS011;75050;53.190;5.562;2024-01-30T03:49:25;12.93;;;11.43;;
84814;SDS011;75050;53.190;5.562;2024-01-30T03:51:51;12.90;;;11.60;;
84814;SDS011;75050;53.190;5.562;2024-01-30T03:54:16;14.52;;;12.98;;
84814;SDS011;75050;53.190;5.562;2024-01-30T03:56:41;12.95;;;11.73;;
84814;SDS011;75050;53.190;5.562;2024-01-30T03:59:07;14.43;;;13.00;;
84814;SDS011;75050;53.190;5.562;2024-01-30T04:01:32;12.13;;;10.13;;
84814;SDS011;75050;53.190;5.562;2024-01-30T04:03:58;12.95;;;11.63;;
84814;SDS011;75050;53.190;5.562;2024-01-30T04:06:23;14.57;;;13.18;;
84814;SDS011;75050;53.190;5.562;2024-01-30T04:08:49;13.85;;;12.45;;
84814;SDS011;75050;53.190;5.562;2024-01-30T04:11:14;12.65;;;11.48;;
84814;SDS011;75050;53.190;5.562;2024-01-30T04:13:40;13.63;;;12.18;;
84814;SDS011;75050;53.190;5.562;2024-01-30T04:16:05;10.15;;;8.90;;
84814;SDS011;75050;53.190;5.562;2024-01-30T04:18:31;14.45;;;12.93;;
84814;SDS011;75050;53.190;5.562;2024-01-30T04:20:57;12.75;;;10.90;;
84814;SDS011;75050;53.190;5.562;2024-01-30T04:23:22;13.95;;;12.55;;
84814;SDS011;75050;53.190;5.562;2024-01-30T04:25:48;13.07;;;11.70;;
84814;SDS011;75050;53.190;5.562;2024-01-30T04:28:13;12.63;;;11.45;;
84814;SDS011;75050;53.190;5.562;2024-01-30T04:30:38;14.02;;;12.73;;
84814;SDS011;75050;53.190;5.562;2024-01-30T04:33:04;12.98;;;11.65;;
84814;SDS011;75050;53.190;5.562;2024-01-30T04:35:30;12.00;;;10.70;;
84814;SDS011;75050;53.190;5.562;2024-01-30T04:37:55;13.13;;;11.82;;
84814;SDS011;75050;53.190;5.562;2024-01-30T04:40:21;12.80;;;11.50;;
84814;SDS011;75050;53.190;5.562;2024-01-30T04:42:46;11.73;;;10.55;;
84814;SDS011;75050;53.190;5.562;2024-01-30T04:45:12;12.43;;;11.13;;
84814;SDS011;75050;53.190;5.562;2024-01-30T04:47:37;11.18;;;10.07;;
84814;SDS011;75050;53.190;5.562;2024-01-30T04:50:04;13.18;;;11.80;;
84814;SDS011;75050;53.190;5.562;2024-01-30T04:52:31;12.45;;;11.27;;
84814;SDS011;75050;53.190;5.562;2024-01-30T04:54:56;12.85;;;11.55;;
84814;SDS011;75050;53.190;5.562;2024-01-30T04:57:22;12.77;;;11.55;;
84814;SDS011;75050;53.190;5.562;2024-01-30T04:59:47;12.75;;;11.50;;
84814;SDS011;75050;53.190;5.562;2024-01-30T05:02:12;12.80;;;11.50;;
84814;SDS011;75050;53.190;5.562;2024-01-30T05:04:38;13.38;;;11.90;;
84814;SDS011;75050;53.190;5.562;2024-01-30T05:07:03;12.65;;;11.25;;
84814;SDS011;75050;53.190;5.562;2024-01-30T05:09:29;12.85;;;11.65;;
84814;SDS011;75050;53.190;5.562;2024-01-30T05:11:54;15.45;;;14.05;;
84814;SDS011;75050;53.190;5.562;2024-01-30T05:14:20;13.88;;;11.20;;
84814;SDS011;75050;53.190;5.562;2024-01-30T05:16:45;14.85;;;13.40;;
84814;SDS011;75050;53.190;5.562;2024-01-30T05:19:12;12.52;;;10.57;;
84814;SDS011;75050;53.190;5.562;2024-01-30T05:21:39;12.90;;;11.60;;
84814;SDS011;75050;53.190;5.562;2024-01-30T05:24:04;12.60;;;11.40;;
84814;SDS011;75050;53.190;5.562;2024-01-30T05:26:30;11.82;;;10.73;;
84814;SDS011;75050;53.190;5.562;2024-01-30T05:28:55;13.73;;;12.40;;
84814;SDS011;75050;53.190;5.562;2024-01-30T05:31:21;13.80;;;10.93;;
84814;SDS011;75050;53.190;5.562;2024-01-30T05:33:47;13.90;;;12.60;;
84814;SDS011;75050;53.190;5.562;2024-01-30T05:36:12;11.65;;;10.55;;
84814;SDS011;75050;53.190;5.562;2024-01-30T05:38:38;12.93;;;10.68;;
84814;SDS011;75050;53.190;5.562;2024-01-30T05:41:04;12.82;;;11.50;;
84814;SDS011;75050;53.190;5.562;2024-01-30T05:43:29;13.57;;;11.68;;
84814;SDS011;75050;53.190;5.562;2024-01-30T05:45:54;11.95;;;10.65;;
84814;SDS011;75050;53.190;5.562;2024-01-30T05:48:20;14.95;;;13.50;;
84814;SDS011;75050;53.190;5.562;2024-01-30T05:50:45;13.95;;;12.70;;
84814;SDS011;75050;53.190;5.562;2024-01-30T05:53:11;13.48;;;12.10;;
84814;SDS011;75050;53.190;5.562;2024-01-30T05:55:36;13.23;;;11.90;;
84814;SDS011;75050;53.190;5.562;2024-01-30T05:58:02;13.20;;;11.88;;
84814;SDS011;75050;53.190;5.562;2024-01-30T06:00:28;15.80;;;14.25;;
84814;SDS011;75050;53.190;5.562;2024-01-30T06:02:54;14.65;;;13.18;;
84814;SDS011;75050;53.190;5.562;2024-01-30T06:05:20;13.07;;;11.73;;
84814;SDS011;75050;53.190;5.562;2024-01-30T06:07:45;13.65;;;11.18;;
84814;SDS011;75050;53.190;5.562;2024-01-30T06:10:10;13.63;;;12.23;;
84814;SDS011;75050;53.190;5.562;2024-01-30T06:12:36;13.40;;;11.98;;
84814;SDS011;75050;53.190;5.562;2024-01-30T06:15:01;13.65;;;11.75;;
84814;SDS011;75050;53.190;5.562;2024-01-30T06:17:27;13.35;;;11.75;;
84814;SDS011;75050;53.190;5.562;2024-01-30T06:19:53;15.57;;;14.02;;
84814;SDS011;75050;53.190;5.562;2024-01-30T06:22:18;13.45;;;12.05;;
84814;SDS011;75050;53.190;5.562;2024-01-30T06:24:44;16.10;;;14.65;;
84814;SDS011;75050;53.190;5.562;2024-01-30T06:27:10;13.13;;;11.38;;
84814;SDS011;75050;53.190;5.562;2024-01-30T06:29:36;13.77;;;12.48;;
84814;SDS011;75050;53.190;5.562;2024-01-30T06:32:01;15.80;;;14.32;;
84814;SDS011;75050;53.190;5.562;2024-01-30T06:34:27;14.45;;;12.82;;
84814;SDS011;75050;53.190;5.562;2024-01-30T06:36:52;13.35;;;11.95;;
84814;SDS011;75050;53.190;5.562;2024-01-30T06:39:17;13.15;;;11.85;;
84814;SDS011;75050;53.190;5.562;2024-01-30T06:41:43;14.60;;;13.18;;
84814;SDS011;75050;53.190;5.562;2024-01-30T06:44:08;13.57;;;12.23;;
84814;SDS011;75050;53.190;5.562;2024-01-30T06:46:34;13.05;;;11.57;;
84814;SDS011;75050;53.190;5.562;2024-01-30T06:49:00;12.98;;;11.63;;
84814;SDS011;75050;53.190;5.562;2024-01-30T06:51:26;12.75;;;11.55;;
84814;SDS011;75050;53.190;5.562;2024-01-30T06:53:51;12.00;;;10.70;;
84814;SDS011;75050;53.190;5.562;2024-01-30T06:56:17;14.52;;;12.93;;
84814;SDS011;75050;53.190;5.562;2024-01-30T06:58:46;11.65;;;10.45;;
84814;SDS011;75050;53.190;5.562;2024-01-30T07:01:14;13.50;;;12.20;;
84814;SDS011;75050;53.190;5.562;2024-01-30T07:03:39;13.15;;;11.82;;
84814;SDS011;75050;53.190;5.562;2024-01-30T07:06:05;13.77;;;12.38;;
84814;SDS011;75050;53.190;5.562;2024-01-30T07:08:30;14.43;;;12.75;;
84814;SDS011;75050;53.190;5.562;2024-01-30T07:10:55;13.07;;;11.50;;
84814;SDS011;75050;53.190;5.562;2024-01-30T07:13:21;13.48;;;11.95;;
84814;SDS011;75050;53.190;5.562;2024-01-30T07:15:46;13.05;;;11.77;;
84814;SDS011;75050;53.190;5.562;2024-01-30T07:18:12;15.10;;;13.68;;
84814;SDS011;75050;53.190;5.562;2024-01-30T07:20:38;12.48;;;11.18;;
84814;SDS011;75050;53.190;5.562;2024-01-30T07:23:10;12.57;;;11.27;;
84814;SDS011;75050;53.190;5.562;2024-01-30T07:25:38;16.17;;;11.15;;
84814;SDS011;75050;53.190;5.562;2024-01-30T07:28:06;12.02;;;10.32;;
84814;SDS011;75050;53.190;5.562;2024-01-30T07:30:35;12.73;;;11.43;;
84814;SDS011;75050;53.190;5.562;2024-01-30T07:33:01;13.05;;;11.30;;
84814;SDS011;75050;53.190;5.562;2024-01-30T07:35:26;13.30;;;11.68;;
84814;SDS011;75050;53.190;5.562;2024-01-30T07:37:52;14.88;;;12.52;;
84814;SDS011;75050;53.190;5.562;2024-01-30T07:40:17;14.00;;;12.63;;
84814;SDS011;75050;53.190;5.562;2024-01-30T07:42:43;13.45;;;12.00;;
84814;SDS011;75050;53.190;5.562;2024-01-30T07:45:08;12.52;;;11.20;;
84814;SDS011;75050;53.190;5.562;2024-01-30T07:47:34;14.38;;;12.52;;
84814;SDS011;75050;53.190;5.562;2024-01-30T07:49:59;14.82;;;13.43;;
84814;SDS011;75050;53.190;5.562;2024-01-30T07:52:25;15.07;;;13.45;;
84814;SDS011;75050;53.190;5.562;2024-01-30T07:54:50;14.45;;;12.95;;
84814;SDS011;75050;53.190;5.562;2024-01-30T07:57:16;15.95;;;13.90;;
84814;SDS011;75050;53.190;5.562;2024-01-30T07:59:42;15.15;;;13.35;;
84814;SDS011;75050;53.190;5.562;2024-01-30T08:02:14;15.07;;;13.48;;
84814;SDS011;75050;53.190;5.562;2024-01-30T08:04:40;13.85;;;11.77;;
84814;SDS011;75050;53.190;5.562;2024-01-30T08:07:05;13.38;;;12.07;;
84814;SDS011;75050;53.190;5.562;2024-01-30T08:09:31;15.43;;;13.82;;
84814;SDS011;75050;53.190;5.562;2024-01-30T08:11:56;15.80;;;12.38;;
84814;SDS011;75050;53.190;5.562;2024-01-30T08:14:21;13.98;;;12.57;;
84814;SDS011;75050;53.190;5.562;2024-01-30T08:16:47;18.00;;;16.30;;
84814;SDS011;75050;53.190;5.562;2024-01-30T08:19:13;15.70;;;14.13;;
84814;SDS011;75050;53.190;5.562;2024-01-30T08:21:39;16.10;;;11.55;;
84814;SDS011;75050;53.190;5.562;2024-01-30T08:24:05;13.20;;;11.60;;
84814;SDS011;75050;53.190;5.562;2024-01-30T08:26:31;14.32;;;12.18;;
84814;SDS011;75050;53.190;5.562;2024-01-30T08:28:57;15.68;;;13.95;;
84814;SDS011;75050;53.190;5.562;2024-01-30T08:31:22;13.63;;;11.73;;
84814;SDS011;75050;53.190;5.562;2024-01-30T08:33:48;13.55;;;11.10;;
84814;SDS011;75050;53.190;5.562;2024-01-30T08:36:14;13.07;;;11.77;;
84814;SDS011;75050;53.190;5.562;2024-01-30T08:38:40;14.02;;;12.52;;
84814;SDS011;75050;53.190;5.562;2024-01-30T08:41:05;15.40;;;13.30;;
84814;SDS011;75050;53.190;5.562;2024-01-30T08:43:32;14.88;;;13.13;;
84814;SDS011;75050;53.190;5.562;2024-01-30T08:46:00;13.02;;;11.27;;
84814;SDS011;75050;53.190;5.562;2024-01-30T08:48:26;15.23;;;13.27;;
84814;SDS011;75050;53.190;5.562;2024-01-30T08:50:52;14.27;;;12.77;;
84814;SDS011;75050;53.190;5.562;2024-01-30T08:53:17;15.90;;;12.27;;
84814;SDS011;75050;53.190;5.562;2024-01-30T08:55:43;14.43;;;11.15;;
84814;SDS011;75050;53.190;5.562;2024-01-30T08:58:08;13.55;;;11.27;;
84814;SDS011;75050;53.190;5.562;2024-01-30T09:00:34;14.50;;;10.88;;
84814;SDS011;75050;53.190;5.562;2024-01-30T09:02:59;14.57;;;13.07;;
84814;SDS011;75050;53.190;5.562;2024-01-30T09:05:25;15.23;;;12.55;;
84814;SDS011;75050;53.190;5.562;2024-01-30T09:07:50;15.55;;;13.45;;
84814;SDS011;75050;53.190;5.562;2024-01-30T09:10:16;15.93;;;14.13;;
84814;SDS011;75050;53.190;5.562;2024-01-30T09:12:41;13.75;;;12.23;;
84814;SDS011;75050;53.190;5.562;2024-01-30T09:15:06;14.30;;;12.90;;
84814;SDS011;75050;53.190;5.562;2024-01-30T09:17:32;15.00;;;12.98;;
84814;SDS011;75050;53.190;5.562;2024-01-30T09:19:58;16.60;;;14.73;;
84814;SDS011;75050;53.190;5.562;2024-01-30T09:22:23;18.70;;;14.82;;
84814;SDS011;75050;53.190;5.562;2024-01-30T09:24:49;12.60;;;10.77;;
84814;SDS011;75050;53.190;5.562;2024-01-30T09:27:14;13.82;;;12.43;;
84814;SDS011;75050;53.190;5.562;2024-01-30T09:29:40;16.45;;;14.75;;
84814;SDS011;75050;53.190;5.562;2024-01-30T09:32:05;14.85;;;11.65;;
84814;SDS011;75050;53.190;5.562;2024-01-30T09:34:31;16.48;;;12.13;;
84814;SDS011;75050;53.190;5.562;2024-01-30T09:36:57;15.15;;;12.07;;
84814;SDS011;75050;53.190;5.562;2024-01-30T09:39:24;15.48;;;12.50;;
84814;SDS011;75050;53.190;5.562;2024-01-30T09:41:51;13.75;;;11.85;;
84814;SDS011;75050;53.190;5.562;2024-01-30T09:44:25;14.55;;;11.60;;
84814;SDS011;75050;53.190;5.562;2024-01-30T09:46:54;13.20;;;11.15;;
84814;SDS011;75050;53.190;5.562;2024-01-30T09:49:20;15.40;;;12.30;;
84814;SDS011;75050;53.190;5.562;2024-01-30T09:51:45;12.10;;;10.85;;
84814;SDS011;75050;53.190;5.562;2024-01-30T09:54:13;13.70;;;12.35;;
84814;SDS011;75050;53.190;5.562;2024-01-30T09:56:40;14.80;;;12.20;;
84814;SDS011;75050;53.190;5.562;2024-01-30T09:59:05;13.57;;;12.02;;
84814;SDS011;75050;53.190;5.562;2024-01-30T10:01:31;13.55;;;12.18;;
84814;SDS011;75050;53.190;5.562;2024-01-30T10:03:59;12.98;;;11.52;;
84814;SDS011;75050;53.190;5.562;2024-01-30T10:06:25;14.25;;;11.73;;
84814;SDS011;75050;53.190;5.562;2024-01-30T10:08:51;14.90;;;12.93;;
84814;SDS011;75050;53.190;5.562;2024-01-30T10:11:17;13.77;;;12.20;;
84814;SDS011;75050;53.190;5.562;2024-01-30T10:13:42;12.35;;;11.02;;
84814;SDS011;75050;53.190;5.562;2024-01-30T10:16:07;17.70;;;11.75;;
84814;SDS011;75050;53.190;5.562;2024-01-30T10:18:33;11.80;;;10.43;;
84814;SDS011;75050;53.190;5.562;2024-01-30T10:20:58;14.25;;;10.27;;
84814;SDS011;75050;53.190;5.562;2024-01-30T10:23:24;14.15;;;12.80;;
84814;SDS011;75050;53.190;5.562;2024-01-30T10:25:51;11.82;;;9.27;;
84814;SDS011;75050;53.190;5.562;2024-01-30T10:28:17;10.93;;;9.43;;
84814;SDS011;75050;53.190;5.562;2024-01-30T10:30:42;13.65;;;11.48;;
84814;SDS011;75050;53.190;5.562;2024-01-30T10:33:07;13.88;;;9.77;;
84814;SDS011;75050;53.190;5.562;2024-01-30T10:35:33;11.77;;;9.57;;
84814;SDS011;75050;53.190;5.562;2024-01-30T10:37:58;11.27;;;9.82;;
84814;SDS011;75050;53.190;5.562;2024-01-30T10:40:26;13.40;;;9.98;;
84814;SDS011;75050;53.190;5.562;2024-01-30T10:42:52;12.70;;;7.80;;
84814;SDS011;75050;53.190;5.562;2024-01-30T10:45:20;17.10;;;10.95;;
84814;SDS011;75050;53.190;5.562;2024-01-30T10:47:52;13.27;;;7.28;;
84814;SDS011;75050;53.190;5.562;2024-01-30T10:50:19;10.43;;;8.07;;
84814;SDS011;75050;53.190;5.562;2024-01-30T10:52:45;9.70;;;8.40;;
84814;SDS011;75050;53.190;5.562;2024-01-30T10:55:12;8.02;;;6.75;;
84814;SDS011;75050;53.190;5.562;2024-01-30T10:57:40;9.13;;;6.97;;
84814;SDS011;75050;53.190;5.562;2024-01-30T11:00:06;8.75;;;7.72;;
84814;SDS011;75050;53.190;5.562;2024-01-30T11:02:40;12.07;;;10.98;;
84814;SDS011;75050;53.190;5.562;2024-01-30T11:05:08;9.77;;;6.40;;
84814;SDS011;75050;53.190;5.562;2024-01-30T11:07:34;9.38;;;8.18;;
84814;SDS011;75050;53.190;5.562;2024-01-30T11:12:26;10.55;;;8.05;;
84814;SDS011;75050;53.190;5.562;2024-01-30T11:15:02;6.55;;;5.78;;
84814;SDS011;75050;53.190;5.562;2024-01-30T11:20:11;8.50;;;6.40;;
84814;SDS011;75050;53.190;5.562;2024-01-30T11:22:40;6.72;;;5.75;;
84814;SDS011;75050;53.190;5.562;2024-01-30T11:25:06;9.27;;;8.50;;
84814;SDS011;75050;53.190;5.562;2024-01-30T11:27:36;9.23;;;6.65;;
84814;SDS011;75050;53.190;5.562;2024-01-30T11:30:03;7.57;;;6.93;;
84814;SDS011;75050;53.190;5.562;2024-01-30T11:32:28;7.35;;;6.70;;
84814;SDS011;75050;53.190;5.562;2024-01-30T11:34:54;8.20;;;6.95;;
84814;SDS011;75050;53.190;5.562;2024-01-30T11:37:20;6.03;;;5.55;;
84814;SDS011;75050;53.190;5.562;2024-01-30T11:39:50;6.45;;;5.90;;
84814;SDS011;75050;53.190;5.562;2024-01-30T11:42:16;5.90;;;5.25;;
84814;SDS011;75050;53.190;5.562;2024-01-30T11:44:46;6.63;;;5.55;;
84814;SDS011;75050;53.190;5.562;2024-01-30T11:47:12;5.38;;;4.90;;
84814;SDS011;75050;53.190;5.562;2024-01-30T11:49:37;6.63;;;5.65;;
84814;SDS011;75050;53.190;5.562;2024-01-30T11:52:03;8.18;;;6.57;;
84814;SDS011;75050;53.190;5.562;2024-01-30T11:54:29;7.97;;;5.50;;
84814;SDS011;75050;53.190;5.562;2024-01-30T11:56:54;8.85;;;8.20;;
84814;SDS011;75050;53.190;5.562;2024-01-30T11:59:20;5.28;;;4.18;;
84814;SDS011;75050;53.190;5.562;2024-01-30T12:01:45;8.13;;;7.63;;
84814;SDS011;75050;53.190;5.562;2024-01-30T12:04:11;4.05;;;3.70;;
84814;SDS011;75050;53.190;5.562;2024-01-30T12:06:37;6.07;;;5.10;;
84814;SDS011;75050;53.190;5.562;2024-01-30T12:09:03;7.18;;;6.68;;
84814;SDS011;75050;53.190;5.562;2024-01-30T12:11:44;7.43;;;4.80;;
84814;SDS011;75050;53.190;5.562;2024-01-30T12:14:11;6.10;;;5.70;;
84814;SDS011;75050;53.190;5.562;2024-01-30T12:16:37;5.97;;;4.72;;
84814;SDS011;75050;53.190;5.562;2024-01-30T12:19:02;5.03;;;4.63;;
84814;SDS011;75050;53.190;5.562;2024-01-30T12:21:28;7.53;;;7.05;;
84814;SDS011;75050;53.190;5.562;2024-01-30T12:23:54;6.18;;;5.57;;
84814;SDS011;75050;53.190;5.562;2024-01-30T12:26:21;6.25;;;5.65;;
84814;SDS011;75050;53.190;5.562;2024-01-30T12:28:50;7.15;;;4.65;;
84814;SDS011;75050;53.190;5.562;2024-01-30T12:31:15;5.53;;;5.10;;
84814;SDS011;75050;53.190;5.562;2024-01-30T12:33:41;5.43;;;4.88;;
84814;SDS011;75050;53.190;5.562;2024-01-30T12:36:06;8.88;;;8.25;;
84814;SDS011;75050;53.190;5.562;2024-01-30T12:38:32;4.85;;;4.35;;
84814;SDS011;75050;53.190;5.562;2024-01-30T12:40:58;6.88;;;6.10;;
84814;SDS011;75050;53.190;5.562;2024-01-30T12:43:23;10.15;;;9.70;;
84814;SDS011;75050;53.190;5.562;2024-01-30T12:45:50;5.07;;;4.20;;
84814;SDS011;75050;53.190;5.562;2024-01-30T12:48:15;5.90;;;5.43;;
84814;SDS011;75050;53.190;5.562;2024-01-30T12:50:41;6.82;;;6.30;;
84814;SDS011;75050;53.190;5.562;2024-01-30T12:53:06;6.40;;;6.00;;
84814;SDS011;75050;53.190;5.562;2024-01-30T12:55:32;4.97;;;4.57;;
84814;SDS011;75050;53.190;5.562;2024-01-30T12:57:57;5.05;;;3.92;;
84814;SDS011;75050;53.190;5.562;2024-01-30T13:00:23;7.45;;;7.05;;
84814;SDS011;75050;53.190;5.562;2024-01-30T13:02:48;5.35;;;4.95;;
84814;SDS011;75050;53.190;5.562;2024-01-30T13:05:14;5.57;;;5.18;;
84814;SDS011;75050;53.190;5.562;2024-01-30T13:07:39;4.63;;;4.22;;
84814;SDS011;75050;53.190;5.562;2024-01-30T13:10:05;4.72;;;4.25;;
84814;SDS011;75050;53.190;5.562;2024-01-30T13:12:31;4.95;;;4.10;;
84814;SDS011;75050;53.190;5.562;2024-01-30T13:15:00;5.70;;;5.30;;
84814;SDS011;75050;53.190;5.562;2024-01-30T13:17:26;6.80;;;6.15;;
84814;SDS011;75050;53.190;5.562;2024-01-30T13:19:52;6.05;;;5.65;;
84814;SDS011;75050;53.190;5.562;2024-01-30T13:22:19;5.63;;;4.35;;
84814;SDS011;75050;53.190;5.562;2024-01-30T13:24:46;5.22;;;4.85;;
84814;SDS011;75050;53.190;5.562;2024-01-30T13:27:12;4.68;;;4.38;;
84814;SDS011;75050;53.190;5.562;2024-01-30T13:29:37;4.63;;;4.30;;
84814;SDS011;75050;53.190;5.562;2024-01-30T13:32:03;5.88;;;5.25;;
84814;SDS011;75050;53.190;5.562;2024-01-30T13:34:29;6.45;;;5.85;;
84814;SDS011;75050;53.190;5.562;2024-01-30T13:36:54;4.85;;;4.53;;
84814;SDS011;75050;53.190;5.562;2024-01-30T13:39:19;7.90;;;5.53;;
84814;SDS011;75050;53.190;5.562;2024-01-30T13:41:45;4.95;;;4.53;;
84814;SDS011;75050;53.190;5.562;2024-01-30T13:44:10;5.15;;;4.75;;
84814;SDS011;75050;53.190;5.562;2024-01-30T13:46:35;5.03;;;4.45;;
84814;SDS011;75050;53.190;5.562;2024-01-30T13:49:01;5.03;;;4.72;;
84814;SDS011;75050;53.190;5.562;2024-01-30T13:51:27;4.15;;;3.88;;
84814;SDS011;75050;53.190;5.562;2024-01-30T13:53:52;4.90;;;4.45;;
84814;SDS011;75050;53.190;5.562;2024-01-30T13:56:18;4.18;;;3.88;;
84814;SDS011;75050;53.190;5.562;2024-01-30T13:58:44;6.55;;;6.15;;
84814;SDS011;75050;53.190;5.562;2024-01-30T14:01:10;5.10;;;4.85;;
84814;SDS011;75050;53.190;5.562;2024-01-30T14:03:35;6.82;;;5.22;;
84814;SDS011;75050;53.190;5.562;2024-01-30T14:06:01;5.65;;;5.13;;
84814;SDS011;75050;53.190;5.562;2024-01-30T14:08:26;5.30;;;4.90;;
84814;SDS011;75050;53.190;5.562;2024-01-30T14:10:53;5.32;;;4.95;;
84814;SDS011;75050;53.190;5.562;2024-01-30T14:13:20;4.85;;;4.45;;
84814;SDS011;75050;53.190;5.562;2024-01-30T14:15:46;6.03;;;5.63;;
84814;SDS011;75050;53.190;5.562;2024-01-30T14:18:11;5.30;;;4.90;;
84814;SDS011;75050;53.190;5.562;2024-01-30T14:20:37;6.30;;;5.82;;
84814;SDS011;75050;53.190;5.562;2024-01-30T14:23:02;5.28;;;4.57;;
84814;SDS011;75050;53.190;5.562;2024-01-30T14:25:28;5.00;;;4.70;;